METAR Data
IDs: Format: Raw Decoded Include TAF

Data at: 0602 UTC 22 Jan 2021

Region: TOP
KATL 220552Z 26003KT 10SM -RA FEW007 BKN070 OVC110 08/07 A2993 RMK AO2 RAB50 SLP136 P0000 60000 T00830067 10106 20083 58003

KBOS 220554Z 21007KT 10SM OVC100 M01/M06 A2957 RMK AO2 SLP013 T10061061 10000 21022 58017 $

KBWI 220554Z 20004KT 10SM CLR 06/M06 A2970 RMK AO2 SLP056 T00561056 10072 20028 50002

KCLE 220551Z 26011KT 10SM BKN055 01/M05 A2970 RMK AO2 SLP080 T00111050 10033 20011 51010

KCLT 220552Z 00000KT 10SM OVC200 07/01 A2988 RMK AO2 SLP117 T00670011 10117 20044 58002

KCVG 220552Z 25008KT 10SM CLR 03/M04 A2985 RMK AO2 SLP111 T00331039 10067 20028 53002

KDCA 220552Z 23005KT 10SM CLR 04/M04 A2973 RMK AO2 SLP065 T00441039 10094 20022 50003

KDEN 220553Z 21009KT 10SM FEW090 FEW120 FEW220 M02/M08 A2995 RMK AO2 SLP132 T10171083 10044 21033 55003

KDFW 220553Z 00000KT 1/2SM R17C/P6000FT FG FEW005 08/08 A2991 RMK AO2 SLP126 60001 T00830083 10122 20083 401220072 50009

KDTW 220553Z 25010KT 8SM -SN SCT035 OVC050 02/M04 A2968 RMK AO2 SNB42 SLP056 P0000 60000 T00171039 10039 20017 51008

KEWR 220551Z 23007KT 10SM BKN075 01/M04 A2961 RMK AO2 SLP026 T00111039 10039 20006 58008 $

KFLL 220553Z 00000KT 10SM CLR 17/15 A3005 RMK AO2 SLP173 T01720150 10217 20167 58008

KIAD 220552Z 21004KT 10SM CLR 01/M05 A2971 RMK AO2 SLP062 T00061050 10078 20000 50002

KIAH 220553Z 03004KT 3SM -RA BR BKN004 OVC010 17/16 A2990 RMK AO2 SFC VIS 5 SLP124 P0000 60016 T01720161 10189 20172 401940156 58009

KJFK 220551Z 24007KT 10SM BKN070 02/M02 A2961 RMK AO2 SLP028 T00221017 10028 20000 58010

KLAS 220556Z 21005KT 10SM CLR 12/01 A2997 RMK AO2 SLP143 T01170011 10178 20111 52003

KLAX 220553Z 00000KT 10SM CLR 14/09 A3005 RMK AO2 SLP174 T01440094 10172 20139 53009

KLGA 220551Z 22009KT 10SM BKN070 06/M04 A2959 RMK AO2 SLP019 T00561044 10061 20039 58014

KMCO 220553Z 23004KT 10SM FEW050 FEW130 SCT250 14/11 A3003 RMK AO2 SLP166 T01390106 10194 20133 56009

KMDW 220553Z 28011G23KT 10SM FEW042 M01/M07 A2986 RMK AO2 SLP120 T10061072 10022 21006 400561006 53015

KMEM 220554Z VRB03KT 10SM OVC200 08/06 A2996 RMK AO2 SLP146 T00780056 10100 20078 401170067 53001 $

KMIA 220553Z 00000KT 10SM CLR 16/14 A3005 RMK AO2 SLP176 T01610144 10211 20156 58010 $

KMSP 220553Z 32010KT 10SM CLR M13/M18 A3011 RMK AO2 SLP211 4/006 T11331183 11072 21133 400111133 51026

KORD 220551Z 28011KT 10SM FEW041 M01/M07 A2984 RMK AO2 SLP111 T10111067 10011 21011 400391011 51017

KPDX 220553Z 00000KT 10SM FEW060 SCT075 OVC090 07/03 A3000 RMK AO2 SLP157 T00720028 10078 20056 51004

KPHL 220554Z 23007KT 10SM SCT065 02/M04 A2967 RMK AO2 SLP045 T00221039 10044 20000 51002

KPHX 220551Z 11005KT 10SM FEW080 16/08 A3001 RMK AO2 SLP154 T01560083 10217 20150 53015

KPIT 220551Z 27010KT 10SM BKN045 BKN060 02/M06 A2970 RMK AO2 SLP072 T00221061 10044 20022 53009

KSAN 220551Z 00000KT 8SM FEW005 14/12 A3008 RMK AO2 SLP187 T01440122 10194 20144 53013

KSEA 220553Z 03010KT 10SM OVC065 06/03 A3004 RMK AO2 SLP182 T00610028 10072 20061 53003

KSFO 220556Z 24004KT 10SM SCT020 BKN040 BKN150 11/06 A3001 RMK AO2 SLP162 T01060056 10122 20083 50001

KSLC 220554Z 02005KT 10SM FEW160 SCT190 M01/M05 A2997 RMK AO2 SLP156 T10111050 10033 21017 55006

KSTL 220551Z 35008KT 10SM CLR 03/M05 A3001 RMK AO2 SLP167 T00281050 10061 20028 401220011 53019

KTPA 220553Z 00000KT 10SM FEW100 SCT250 16/13 A3004 RMK AO2 SLP171 T01560128 10167 20156 56011